Airfield :
LOGIN :

Register | Disclaimer

   EN    FR    IT 

 










Legend :    VFR   Marginal VFR   IFR   Intensive IFR   Very Intensive IFR
Visi :
Ceiling :
>= 8 km
>= 3000ft
5 to 8 km
1000 to 3000 ft
1500m to 5 km
500 to 1000 ft
800 to 1500m
200 to 500 ft
< 800m
< 200 ft
Symbols :   Thunderstorms  Fog  Heavy snow  Heavy precipitations  Wind > 20 kt
SIGMETs :     Misc.  Thunderstorms  Icing  Turbulence  Mountain Waves  Volcanic Ashes






- Airport Elevation : 203 ft
- IATA code : XMJ


LFBM - Mont-De-Marsan

CURRENT METAR :
  • 300330Z AUTO 07003KT 0900 0800 R27/1200D FG VV/// 02/02 Q1019 NOSIG

EXPIRED METARs :
  • 300300Z AUTO 08003KT 1100 R27/1400D BR VV/// 03/03 Q1019 NOSIG
  • 300230Z AUTO 08002KT 0900 0700 R27/1200D FG VV/// 03/03 Q1020 NOSIG
  • 300200Z AUTO 06001KT 1300 0800 R27/1900D BCFG VV/// 03/03 Q1020 BECMG 0600 FG
  • 300130Z AUTO 06003KT 1000 0800 R27/1700U BCFG VV/// 03/03 Q1020 BECMG 0600 FG
  • 300100Z AUTO 09002KT 0900 0800 R27/1000N FG VV/// 04/04 Q1020 BECMG 0600 FG

TAF TAF LFBM
Valid from the 30 at 03:00 until the 01 at 03:00 UTC


300200Z 3003/0103 VRB02KT 0800 FG VV///
BECMG 3008/3010 5000 BR OVC004
BECMG 3011/3014 9999 NSW BKN015
BECMG 3023/0101 0800 FG VV///



MET'MAP, your aeronautical weather chart ! - Copyright ORBIFLY December 2007 - Disclaimer

ORBIFLY MET'MAP TEAM :

Programming & Development : Alexandra Zaïnal
Original concept : Baudouin d'Aumeries
Technical & hardware support : Manuel Goepfert
Assistance : Marc-Olivier Méhu




SOURCES & CREDITS :

   NOAA